LiveATC.Net - Listen to live air traffic control over the Internet!


ICAO: LHPR  IATA: QGY   Airport: Gyor-Per International Airport
City: Gyor
Country: Hungary   Continent: Europe
LHPR METAR Weather: LHPR 051745Z AUTO 28007KT 9999 BKN039 BKN110 21/16 Q1016 NOSIG
LHPR Flight Activity (FlightAware)
LHPR Webcam:  (Airport Webcams) 

LHPR Info/AFIS
Feed Status: UP   Listeners: 0
Listen in your browser - HTML5 player (in browser, HTML5)
Click here to listen with your own player (launches your MP3 player)
Archive Access: LHPR Info/AFIS
FacilityFrequency
Gyor AFIS129.910

NOTICE

Unauthorized use prohibited. See LiveATC.net Terms of Service


Airport/ARTCC Code
Frequency Search
(e.g., 124.400, 128.75)
Site-wide search
 


Browse Feeds
Top 50 Feeds
Coverage Map
Bad Weather Areas

LiveATC FAQ
Offer LiveATC feed
Contact LiveATC.net
Press Inquiries

LiveATC on iPhone
LiveATC on Android

Windows Phone
Windows 8/10

LiveATC Mobile
(Mobile browser)

ATC Audio Archives
Interesting Recordings

LiveATC Forums


Home Page
About LiveATC.net
Make a Donation
Terms of Use
Privacy Policy

Canadian Air Freqs

AIRMETs/SIGMETs

FAA Airport Status
Nat'l Airspace Status
Arrival Demand Charts


Server Software By:
Icecast.org
Liquidsoap